Terminal Aerodrome Forecast
Issued by NWS

Home | Current Version | Previous Version | Text Only | Print | Product List | Glossary On
Versions: 1 2 3 4 5 6 7 8 9 10 11 12 13 14 15 16 17 18 19 20 21 22 23 24 25 26 27 28 29 30 31 32 33 34 35 36 37 38 39 40 41 42 43 44 45 46 47
000
FTUS45 KBOU 051136
TAFAPA
TAF
KAPA 051136Z 0512/0612 15006KT P6SM SKC
     FM051700 15006KT P6SM FEW120 SCT220
     FM060200 17007KT P6SM FEW120 SCT220
     FM060700 20010KT P6SM FEW220=

USA.gov is the U.S. government's official web portal to all federal, state and local government web resources and services.